Terminal Aerodrome Forecast
Issued by NWS Charleston, WV

Current Version | Previous Version | Text Only | Print | Product List | Glossary Off
Versions: 1 2 3 4 5 6 7 8 9 10 11 12 13 14 15 16 17 18 19 20 21 22 23 24

000
FTUS41 KRLX 241700
TAFCRW
TAF
KCRW 241720Z 2418/2518 07007KT P6SM SCT110 BKN160
     FM242100 08004KT P6SM SCT120
     FM250000 07005KT P6SM SCT200
     FM251100 17006KT P6SM BKN080
     FM251200 17007KT 6SM SHRA BKN060
     FM251500 18011G16KT 4SM SHRA OVC035=

USA.gov is the U.S. government's official web portal to all federal, state and local government web resources and services.